This is the latest recevied weather packets stored in our database for station/object KB3KAV. If no packets are shown the sender has not sent any weather packets the latest 1 day(s).
| Time | Temp. | Humidity | Pressure | Rain* | Wind** | Luminosity | Snow |
|---|---|---|---|---|---|---|---|
| 1778082873 | 15° C | 95% | 1035.8 hPa | 3.05 mm | - | 66 W/m² | - |
| 1778080555 | 14.44° C | 95% | 1036.1 hPa | 3.05 mm | - | 30 W/m² | - |
| 1778079954 | 14.44° C | 95% | 1036.3 hPa | 3.05 mm | - | 32 W/m² | - |
| 1778077544 | 14.44° C | 95% | 1036.1 hPa | 3.05 mm | - | 55 W/m² | - |
| 1778072127 | 13.33° C | 94% | 1036.9 hPa | 1.78 mm | - | 35 W/m² | - |
| 1778070918 | 12.78° C | 93% | 1037.1 hPa | 1.78 mm | - | 24 W/m² | - |
| 1778066094 | 12.22° C | 91% | 1036.6 hPa | 0 mm | - | 23 W/m² | - |
| 1778065495 | 12.22° C | 91% | 1036.6 hPa | 0 mm | - | 10 W/m² | - |
| 1778064893 | 12.22° C | 91% | 1035.9 hPa | 0 mm | - | 8 W/m² | - |
| 1778064289 | 11.67° C | 91% | 1036.1 hPa | 0 mm | - | 6 W/m² | - |
| 1778061873 | 11.67° C | 90% | 1035.7 hPa | 0 mm | - | 0 W/m² | - |
| 1778060670 | 11.67° C | 90% | 1035.8 hPa | 0 mm | - | 0 W/m² | - |
| 1778060064 | 11.67° C | 90% | 1036 hPa | 0 mm | - | 0 W/m² | - |
| 1778059460 | 11.67° C | 90% | 1036 hPa | 0 mm | - | 0 W/m² | - |
| 1778058255 | 11.67° C | 90% | 1036 hPa | 0 mm | - | 0 W/m² | - |
| 1778057654 | 11.67° C | 90% | 1036 hPa | 0 mm | - | 0 W/m² | - |
| 1778056453 | 11.67° C | 90% | 1036 hPa | 0 mm | - | 0 W/m² | - |
| 1778055853 | 11.67° C | 90% | 1036.2 hPa | 0 mm | - | 0 W/m² | - |
| 1778054652 | 11.67° C | 90% | 1036.2 hPa | 0 mm | - | 0 W/m² | - |
| 1778054048 | 11.67° C | 90% | 1036.1 hPa | 0 mm | - | 0 W/m² | - |
| 1778050432 | 11.11° C | 91% | 1036.3 hPa | 0 mm | - | 0 W/m² | - |
| 1778049225 | 11.11° C | 91% | 1036.5 hPa | 0 mm | - | 0 W/m² | - |
| 1778048019 | 10.56° C | 91% | 1037 hPa | 0 mm | - | 0 W/m² | - |
| 1778047415 | 10.56° C | 92% | 1036.7 hPa | 0 mm | - | 0 W/m² | - |
| 1778046214 | 10.56° C | 92% | 1037 hPa | 0 mm | - | 0 W/m² | - |
* Rain latest hour (hover to see other rain measurements)
** Current wind speed in m/s (hover to see current wind gust speed)